SALOGM 211230Z AUTO 27003KT 9999 -SHRA OVC029 11/06 Q1009